Pelican, South Dakota
Current Conditions -  °F | °C
As of 6:53 PM on Sunday 21 Dec 2014 (Local Time) from KATY Reporting Station
Haze Haze  
Wind Chill: 25°   Ceiling: 300
Heat Index: 35°   Visibility: 3mi
Dew Point: 33°   Wind: 17mph
Humidity: 92%   Direction: 180°S
Pressure: 29.51"   Gusts: 23mph
Location:  44.9156°N, 97.1699°W
Report Text: KATY 220053Z AUTO 18015G20KT 3SM BR OVC003 02/01 A2951 RMK AO2 SLP012 T00170006
Loading
Personal Weather Stations






























Interactive Weather Map New forecast layout! Learn more

10-Day Weather Forecast

Advertisements
Track Severe Weather on mobile